sensor_id;sensor_type;location;lat;lon;timestamp;P1;durP1;ratioP1;P2;durP2;ratioP2
39822;SDS011;25499;53.958;10.970;2023-03-01T07:43:21;39.05;;;16.80;;
39822;SDS011;25499;53.958;10.970;2023-03-01T07:45:47;29.50;;;15.52;;
39822;SDS011;25499;53.958;10.970;2023-03-01T07:48:12;29.58;;;15.18;;
39822;SDS011;25499;53.958;10.970;2023-03-01T07:50:38;33.30;;;15.93;;
39822;SDS011;25499;53.958;10.970;2023-03-01T07:53:03;33.22;;;15.95;;
39822;SDS011;25499;53.958;10.970;2023-03-01T07:55:29;31.80;;;15.30;;
39822;SDS011;25499;53.958;10.970;2023-03-01T07:57:55;30.75;;;15.25;;
39822;SDS011;25499;53.958;10.970;2023-03-01T08:00:20;28.25;;;14.95;;
39822;SDS011;25499;53.958;10.970;2023-03-01T08:02:46;30.20;;;15.43;;
39822;SDS011;25499;53.958;10.970;2023-03-01T08:05:11;29.23;;;15.38;;
39822;SDS011;25499;53.958;10.970;2023-03-01T08:07:36;28.45;;;15.50;;
39822;SDS011;25499;53.958;10.970;2023-03-01T08:10:02;28.00;;;14.68;;
39822;SDS011;25499;53.958;10.970;2023-03-01T08:12:28;30.38;;;15.80;;
39822;SDS011;25499;53.958;10.970;2023-03-01T08:14:53;29.80;;;14.45;;
39822;SDS011;25499;53.958;10.970;2023-03-01T08:17:19;40.42;;;14.73;;
39822;SDS011;25499;53.958;10.970;2023-03-01T08:19:45;35.17;;;14.85;;
39822;SDS011;25499;53.958;10.970;2023-03-01T08:22:11;29.42;;;14.65;;
39822;SDS011;25499;53.958;10.970;2023-03-01T08:24:36;27.17;;;14.05;;
39822;SDS011;25499;53.958;10.970;2023-03-01T08:27:01;38.28;;;15.48;;
39822;SDS011;25499;53.958;10.970;2023-03-01T08:29:28;28.75;;;15.15;;
39822;SDS011;25499;53.958;10.970;2023-03-01T08:31:55;27.92;;;15.40;;
39822;SDS011;25499;53.958;10.970;2023-03-01T08:34:21;33.55;;;16.00;;
39822;SDS011;25499;53.958;10.970;2023-03-01T08:36:46;33.28;;;15.15;;
39822;SDS011;25499;53.958;10.970;2023-03-01T08:39:13;25.77;;;14.23;;
39822;SDS011;25499;53.958;10.970;2023-03-01T08:41:41;31.17;;;16.27;;
39822;SDS011;25499;53.958;10.970;2023-03-01T08:44:07;27.73;;;15.27;;
39822;SDS011;25499;53.958;10.970;2023-03-01T08:46:38;28.55;;;15.77;;
39822;SDS011;25499;53.958;10.970;2023-03-01T08:49:11;24.38;;;14.93;;
39822;SDS011;25499;53.958;10.970;2023-03-01T08:51:38;25.45;;;14.65;;
39822;SDS011;25499;53.958;10.970;2023-03-01T08:54:04;22.92;;;13.70;;
39822;SDS011;25499;53.958;10.970;2023-03-01T08:56:31;20.30;;;12.82;;
39822;SDS011;25499;53.958;10.970;2023-03-01T08:58:58;18.17;;;12.10;;
39822;SDS011;25499;53.958;10.970;2023-03-01T09:01:23;18.27;;;11.25;;
39822;SDS011;25499;53.958;10.970;2023-03-01T09:03:48;17.35;;;11.23;;
39822;SDS011;25499;53.958;10.970;2023-03-01T09:06:14;16.52;;;10.88;;
39822;SDS011;25499;53.958;10.970;2023-03-01T09:08:42;14.80;;;10.77;;
39822;SDS011;25499;53.958;10.970;2023-03-01T09:11:11;19.20;;;11.95;;
39822;SDS011;25499;53.958;10.970;2023-03-01T09:13:38;17.40;;;11.18;;
39822;SDS011;25499;53.958;10.970;2023-03-01T09:16:05;16.92;;;11.82;;
39822;SDS011;25499;53.958;10.970;2023-03-01T09:18:32;18.33;;;11.30;;
39822;SDS011;25499;53.958;10.970;2023-03-01T09:21:12;19.30;;;11.85;;
39822;SDS011;25499;53.958;10.970;2023-03-01T09:23:43;16.35;;;11.13;;
39822;SDS011;25499;53.958;10.970;2023-03-01T09:26:13;20.52;;;13.07;;
39822;SDS011;25499;53.958;10.970;2023-03-01T09:28:44;24.33;;;14.35;;
39822;SDS011;25499;53.958;10.970;2023-03-01T09:43:48;33.33;;;19.67;;
39822;SDS011;25499;53.958;10.970;2023-03-01T09:46:22;35.92;;;20.52;;
39822;SDS011;25499;53.958;10.970;2023-03-01T09:48:51;39.42;;;21.40;;
39822;SDS011;25499;53.958;10.970;2023-03-01T09:51:29;43.13;;;23.50;;
39822;SDS011;25499;53.958;10.970;2023-03-01T09:53:57;45.78;;;24.00;;
39822;SDS011;25499;53.958;10.970;2023-03-01T09:59:00;24.23;;;15.48;;
39822;SDS011;25499;53.958;10.970;2023-03-01T10:07:03;14.13;;;10.30;;
39822;SDS011;25499;53.958;10.970;2023-03-01T10:09:37;13.65;;;9.63;;
39822;SDS011;25499;53.958;10.970;2023-03-01T10:12:06;14.23;;;9.30;;
39822;SDS011;25499;53.958;10.970;2023-03-01T10:14:36;11.68;;;8.90;;
39822;SDS011;25499;53.958;10.970;2023-03-01T10:20:33;15.90;;;9.18;;
39822;SDS011;25499;53.958;10.970;2023-03-01T10:22:58;13.10;;;8.63;;
39822;SDS011;25499;53.958;10.970;2023-03-01T10:25:38;11.95;;;9.05;;
39822;SDS011;25499;53.958;10.970;2023-03-01T10:30:46;9.52;;;8.02;;
39822;SDS011;25499;53.958;10.970;2023-03-01T10:33:17;6.57;;;5.50;;
39822;SDS011;25499;53.958;10.970;2023-03-01T10:35:55;6.00;;;5.50;;
39822;SDS011;25499;53.958;10.970;2023-03-01T10:38:21;6.45;;;5.85;;
39822;SDS011;25499;53.958;10.970;2023-03-01T10:43:19;7.20;;;6.35;;
39822;SDS011;25499;53.958;10.970;2023-03-01T10:45:45;12.52;;;8.98;;
39822;SDS011;25499;53.958;10.970;2023-03-01T10:59:03;11.15;;;9.10;;
39822;SDS011;25499;53.958;10.970;2023-03-01T11:01:46;12.35;;;8.80;;
39822;SDS011;25499;53.958;10.970;2023-03-01T11:06:59;12.43;;;8.95;;
39822;SDS011;25499;53.958;10.970;2023-03-01T11:09:26;11.10;;;9.13;;
39822;SDS011;25499;53.958;10.970;2023-03-01T11:12:02;10.43;;;8.95;;
39822;SDS011;25499;53.958;10.970;2023-03-01T11:14:35;11.60;;;8.80;;
39822;SDS011;25499;53.958;10.970;2023-03-01T11:17:04;10.95;;;9.10;;
39822;SDS011;25499;53.958;10.970;2023-03-01T11:19:36;10.80;;;8.85;;
39822;SDS011;25499;53.958;10.970;2023-03-01T11:22:17;12.32;;;8.95;;
39822;SDS011;25499;53.958;10.970;2023-03-01T11:24:52;14.27;;;9.38;;
39822;SDS011;25499;53.958;10.970;2023-03-01T11:27:24;13.27;;;9.25;;
39822;SDS011;25499;53.958;10.970;2023-03-01T11:29:57;13.70;;;9.95;;
39822;SDS011;25499;53.958;10.970;2023-03-01T11:32:26;18.52;;;11.05;;
39822;SDS011;25499;53.958;10.970;2023-03-01T11:34:58;15.30;;;10.45;;
39822;SDS011;25499;53.958;10.970;2023-03-01T11:50:53;19.58;;;13.13;;
39822;SDS011;25499;53.958;10.970;2023-03-01T12:20:29;25.13;;;15.73;;
39822;SDS011;25499;53.958;10.970;2023-03-01T12:31:15;25.27;;;15.57;;
39822;SDS011;25499;53.958;10.970;2023-03-01T12:37:16;25.98;;;16.30;;
39822;SDS011;25499;53.958;10.970;2023-03-01T12:40:09;25.83;;;15.10;;
39822;SDS011;25499;53.958;10.970;2023-03-01T12:42:46;23.73;;;13.98;;
39822;SDS011;25499;53.958;10.970;2023-03-01T12:50:51;22.95;;;14.60;;
39822;SDS011;25499;53.958;10.970;2023-03-01T12:56:05;22.88;;;14.35;;
39822;SDS011;25499;53.958;10.970;2023-03-01T12:58:39;25.75;;;15.73;;
39822;SDS011;25499;53.958;10.970;2023-03-01T13:01:19;26.95;;;15.43;;
39822;SDS011;25499;53.958;10.970;2023-03-01T13:07:16;22.48;;;14.45;;
39822;SDS011;25499;53.958;10.970;2023-03-01T13:15:24;23.08;;;13.73;;
39822;SDS011;25499;53.958;10.970;2023-03-01T13:20:31;22.30;;;14.75;;
39822;SDS011;25499;53.958;10.970;2023-03-01T13:26:00;21.20;;;14.73;;
39822;SDS011;25499;53.958;10.970;2023-03-01T13:33:50;21.15;;;14.30;;
39822;SDS011;25499;53.958;10.970;2023-03-01T13:46:49;22.90;;;15.40;;
39822;SDS011;25499;53.958;10.970;2023-03-01T13:49:17;23.52;;;15.05;;
39822;SDS011;25499;53.958;10.970;2023-03-01T13:51:47;20.00;;;14.35;;
39822;SDS011;25499;53.958;10.970;2023-03-01T13:54:14;19.92;;;13.57;;
39822;SDS011;25499;53.958;10.970;2023-03-01T13:56:41;19.38;;;12.90;;
39822;SDS011;25499;53.958;10.970;2023-03-01T13:59:19;18.73;;;13.85;;
39822;SDS011;25499;53.958;10.970;2023-03-01T14:01:52;21.30;;;13.48;;
39822;SDS011;25499;53.958;10.970;2023-03-01T14:04:23;19.35;;;12.43;;
39822;SDS011;25499;53.958;10.970;2023-03-01T14:06:48;20.35;;;13.93;;
39822;SDS011;25499;53.958;10.970;2023-03-01T14:19:33;22.58;;;13.02;;
39822;SDS011;25499;53.958;10.970;2023-03-01T14:24:55;24.67;;;14.75;;
39822;SDS011;25499;53.958;10.970;2023-03-01T14:27:23;18.50;;;12.48;;
39822;SDS011;25499;53.958;10.970;2023-03-01T14:29:56;20.88;;;13.70;;
39822;SDS011;25499;53.958;10.970;2023-03-01T14:32:29;25.02;;;16.20;;
39822;SDS011;25499;53.958;10.970;2023-03-01T14:40:00;21.05;;;13.18;;
39822;SDS011;25499;53.958;10.970;2023-03-01T14:42:28;21.45;;;13.23;;
39822;SDS011;25499;53.958;10.970;2023-03-01T14:44:59;21.65;;;13.73;;
39822;SDS011;25499;53.958;10.970;2023-03-01T14:47:30;21.10;;;13.05;;
39822;SDS011;25499;53.958;10.970;2023-03-01T14:50:07;19.48;;;12.68;;
39822;SDS011;25499;53.958;10.970;2023-03-01T14:52:41;19.17;;;12.85;;
39822;SDS011;25499;53.958;10.970;2023-03-01T14:55:16;18.77;;;13.02;;
39822;SDS011;25499;53.958;10.970;2023-03-01T14:57:45;19.98;;;13.23;;
39822;SDS011;25499;53.958;10.970;2023-03-01T15:00:20;20.02;;;12.80;;
39822;SDS011;25499;53.958;10.970;2023-03-01T15:02:50;19.13;;;12.02;;
39822;SDS011;25499;53.958;10.970;2023-03-01T15:05:18;19.33;;;12.10;;
39822;SDS011;25499;53.958;10.970;2023-03-01T15:07:56;20.65;;;12.80;;
39822;SDS011;25499;53.958;10.970;2023-03-01T15:10:25;20.63;;;13.40;;
39822;SDS011;25499;53.958;10.970;2023-03-01T15:12:52;20.75;;;12.98;;
39822;SDS011;25499;53.958;10.970;2023-03-01T15:15:19;19.70;;;11.73;;
39822;SDS011;25499;53.958;10.970;2023-03-01T15:18:13;19.63;;;12.25;;
39822;SDS011;25499;53.958;10.970;2023-03-01T15:20:40;22.42;;;11.93;;
39822;SDS011;25499;53.958;10.970;2023-03-01T15:23:12;17.83;;;11.57;;
39822;SDS011;25499;53.958;10.970;2023-03-01T15:25:45;19.92;;;11.65;;
39822;SDS011;25499;53.958;10.970;2023-03-01T15:28:12;17.15;;;11.48;;
39822;SDS011;25499;53.958;10.970;2023-03-01T15:30:45;21.40;;;12.88;;
39822;SDS011;25499;53.958;10.970;2023-03-01T15:33:18;19.90;;;11.30;;
39822;SDS011;25499;53.958;10.970;2023-03-01T15:35:53;19.80;;;12.88;;
39822;SDS011;25499;53.958;10.970;2023-03-01T15:40:55;18.77;;;11.82;;
39822;SDS011;25499;53.958;10.970;2023-03-01T15:46:17;29.45;;;17.33;;
39822;SDS011;25499;53.958;10.970;2023-03-01T15:48:47;22.92;;;12.82;;
39822;SDS011;25499;53.958;10.970;2023-03-01T15:51:15;25.27;;;15.85;;
39822;SDS011;25499;53.958;10.970;2023-03-01T15:53:49;30.40;;;20.00;;
39822;SDS011;25499;53.958;10.970;2023-03-01T15:56:17;19.77;;;13.05;;
39822;SDS011;25499;53.958;10.970;2023-03-01T15:58:42;15.77;;;10.45;;
39822;SDS011;25499;53.958;10.970;2023-03-01T16:01:12;19.92;;;11.20;;
39822;SDS011;25499;53.958;10.970;2023-03-01T16:03:39;17.50;;;10.68;;
39822;SDS011;25499;53.958;10.970;2023-03-01T16:06:04;17.92;;;11.18;;
39822;SDS011;25499;53.958;10.970;2023-03-01T16:08:30;20.60;;;11.68;;
39822;SDS011;25499;53.958;10.970;2023-03-01T16:10:57;18.88;;;11.65;;
39822;SDS011;25499;53.958;10.970;2023-03-01T16:13:22;17.75;;;10.68;;
39822;SDS011;25499;53.958;10.970;2023-03-01T16:15:50;18.10;;;11.20;;
39822;SDS011;25499;53.958;10.970;2023-03-01T16:18:16;23.02;;;13.52;;
39822;SDS011;25499;53.958;10.970;2023-03-01T16:20:41;22.48;;;13.20;;
39822;SDS011;25499;53.958;10.970;2023-03-01T16:23:07;22.13;;;13.63;;
39822;SDS011;25499;53.958;10.970;2023-03-01T16:25:35;21.33;;;12.25;;
39822;SDS011;25499;53.958;10.970;2023-03-01T16:28:01;25.83;;;13.23;;
39822;SDS011;25499;53.958;10.970;2023-03-01T16:30:30;23.88;;;13.25;;
39822;SDS011;25499;53.958;10.970;2023-03-01T16:32:56;21.15;;;12.15;;
39822;SDS011;25499;53.958;10.970;2023-03-01T16:35:22;25.60;;;12.82;;
39822;SDS011;25499;53.958;10.970;2023-03-01T16:37:48;26.95;;;13.73;;
39822;SDS011;25499;53.958;10.970;2023-03-01T16:40:24;27.88;;;13.63;;
39822;SDS011;25499;53.958;10.970;2023-03-01T16:42:51;31.40;;;14.07;;
39822;SDS011;25499;53.958;10.970;2023-03-01T16:45:18;25.63;;;13.38;;
39822;SDS011;25499;53.958;10.970;2023-03-01T16:47:44;23.67;;;12.90;;
39822;SDS011;25499;53.958;10.970;2023-03-01T16:50:10;23.48;;;13.23;;
39822;SDS011;25499;53.958;10.970;2023-03-01T16:52:36;22.63;;;13.07;;
39822;SDS011;25499;53.958;10.970;2023-03-01T16:55:03;26.95;;;13.05;;
39822;SDS011;25499;53.958;10.970;2023-03-01T16:57:33;32.88;;;14.07;;
39822;SDS011;25499;53.958;10.970;2023-03-01T16:59:59;26.10;;;13.85;;
39822;SDS011;25499;53.958;10.970;2023-03-01T17:02:24;25.20;;;13.23;;
39822;SDS011;25499;53.958;10.970;2023-03-01T17:04:53;30.52;;;13.65;;
39822;SDS011;25499;53.958;10.970;2023-03-01T17:07:20;29.23;;;14.43;;
39822;SDS011;25499;53.958;10.970;2023-03-01T17:09:46;25.65;;;14.02;;
39822;SDS011;25499;53.958;10.970;2023-03-01T17:12:12;34.70;;;14.60;;
39822;SDS011;25499;53.958;10.970;2023-03-01T17:14:38;29.98;;;13.70;;
39822;SDS011;25499;53.958;10.970;2023-03-01T17:17:06;34.50;;;14.20;;
39822;SDS011;25499;53.958;10.970;2023-03-01T17:19:32;29.00;;;15.00;;
39822;SDS011;25499;53.958;10.970;2023-03-01T17:21:57;32.65;;;16.65;;
39822;SDS011;25499;53.958;10.970;2023-03-01T17:24:23;31.50;;;16.25;;
39822;SDS011;25499;53.958;10.970;2023-03-01T17:26:48;30.42;;;15.55;;
39822;SDS011;25499;53.958;10.970;2023-03-01T17:29:13;28.63;;;14.40;;
39822;SDS011;25499;53.958;10.970;2023-03-01T17:31:43;45.08;;;15.40;;
39822;SDS011;25499;53.958;10.970;2023-03-01T17:34:08;60.72;;;15.02;;
39822;SDS011;25499;53.958;10.970;2023-03-01T17:36:34;119.88;;;15.23;;
39822;SDS011;25499;53.958;10.970;2023-03-01T17:39:05;50.40;;;14.82;;
39822;SDS011;25499;53.958;10.970;2023-03-01T17:41:31;59.03;;;17.10;;
39822;SDS011;25499;53.958;10.970;2023-03-01T17:43:56;29.80;;;13.93;;
39822;SDS011;25499;53.958;10.970;2023-03-01T17:46:21;26.17;;;12.82;;
39822;SDS011;25499;53.958;10.970;2023-03-01T17:48:48;37.03;;;13.38;;
39822;SDS011;25499;53.958;10.970;2023-03-01T17:51:16;47.25;;;13.75;;
39822;SDS011;25499;53.958;10.970;2023-03-01T17:53:41;41.03;;;12.57;;
39822;SDS011;25499;53.958;10.970;2023-03-01T17:56:06;48.20;;;13.73;;
39822;SDS011;25499;53.958;10.970;2023-03-01T17:58:32;73.32;;;14.52;;
39822;SDS011;25499;53.958;10.970;2023-03-01T18:03:37;44.17;;;13.97;;
39822;SDS011;25499;53.958;10.970;2023-03-01T18:06:11;37.58;;;12.55;;
39822;SDS011;25499;53.958;10.970;2023-03-01T18:08:38;49.20;;;14.65;;
39822;SDS011;25499;53.958;10.970;2023-03-01T18:11:03;28.42;;;13.48;;
39822;SDS011;25499;53.958;10.970;2023-03-01T18:13:29;25.90;;;13.23;;
39822;SDS011;25499;53.958;10.970;2023-03-01T18:15:54;30.25;;;13.18;;
39822;SDS011;25499;53.958;10.970;2023-03-01T18:18:25;27.25;;;12.32;;
39822;SDS011;25499;53.958;10.970;2023-03-01T18:20:55;35.22;;;11.93;;
39822;SDS011;25499;53.958;10.970;2023-03-01T18:23:22;36.75;;;11.18;;
39822;SDS011;25499;53.958;10.970;2023-03-01T18:25:48;25.23;;;11.43;;
39822;SDS011;25499;53.958;10.970;2023-03-01T18:28:15;27.35;;;10.50;;
39822;SDS011;25499;53.958;10.970;2023-03-01T18:30:40;34.67;;;10.45;;
39822;SDS011;25499;53.958;10.970;2023-03-01T18:33:05;33.40;;;10.48;;
39822;SDS011;25499;53.958;10.970;2023-03-01T18:35:34;34.10;;;11.10;;
39822;SDS011;25499;53.958;10.970;2023-03-01T18:38:00;24.92;;;11.75;;
39822;SDS011;25499;53.958;10.970;2023-03-01T18:40:27;27.48;;;12.38;;
39822;SDS011;25499;53.958;10.970;2023-03-01T18:42:53;23.13;;;10.57;;
39822;SDS011;25499;53.958;10.970;2023-03-01T18:45:19;38.22;;;10.63;;
39822;SDS011;25499;53.958;10.970;2023-03-01T18:47:44;46.22;;;12.00;;
39822;SDS011;25499;53.958;10.970;2023-03-01T18:50:14;24.52;;;12.05;;
39822;SDS011;25499;53.958;10.970;2023-03-01T18:52:42;29.15;;;12.13;;
39822;SDS011;25499;53.958;10.970;2023-03-01T18:55:08;24.00;;;11.20;;
39822;SDS011;25499;53.958;10.970;2023-03-01T18:57:34;31.73;;;12.75;;
39822;SDS011;25499;53.958;10.970;2023-03-01T18:59:59;23.58;;;12.43;;
39822;SDS011;25499;53.958;10.970;2023-03-01T19:02:25;29.00;;;12.07;;
39822;SDS011;25499;53.958;10.970;2023-03-01T19:04:50;27.42;;;11.68;;
39822;SDS011;25499;53.958;10.970;2023-03-01T19:07:16;43.58;;;13.40;;
39822;SDS011;25499;53.958;10.970;2023-03-01T19:09:41;29.70;;;12.90;;
39822;SDS011;25499;53.958;10.970;2023-03-01T19:12:06;33.55;;;18.65;;
39822;SDS011;25499;53.958;10.970;2023-03-01T19:14:32;28.02;;;14.32;;
39822;SDS011;25499;53.958;10.970;2023-03-01T19:16:57;32.00;;;13.35;;
39822;SDS011;25499;53.958;10.970;2023-03-01T19:19:23;24.35;;;13.63;;
39822;SDS011;25499;53.958;10.970;2023-03-01T19:21:48;20.60;;;12.93;;
39822;SDS011;25499;53.958;10.970;2023-03-01T19:24:14;26.95;;;12.65;;
39822;SDS011;25499;53.958;10.970;2023-03-01T19:26:39;26.00;;;11.88;;
39822;SDS011;25499;53.958;10.970;2023-03-01T19:29:07;20.98;;;10.27;;
39822;SDS011;25499;53.958;10.970;2023-03-01T19:31:35;17.92;;;10.20;;
39822;SDS011;25499;53.958;10.970;2023-03-01T19:34:01;15.68;;;9.65;;
39822;SDS011;25499;53.958;10.970;2023-03-01T19:36:27;18.42;;;10.25;;
39822;SDS011;25499;53.958;10.970;2023-03-01T19:38:57;32.40;;;10.45;;
39822;SDS011;25499;53.958;10.970;2023-03-01T19:41:25;27.08;;;11.15;;
39822;SDS011;25499;53.958;10.970;2023-03-01T19:43:51;33.65;;;11.75;;
39822;SDS011;25499;53.958;10.970;2023-03-01T19:46:18;44.97;;;11.15;;
39822;SDS011;25499;53.958;10.970;2023-03-01T19:48:44;19.77;;;11.38;;
39822;SDS011;25499;53.958;10.970;2023-03-01T19:51:09;29.98;;;11.30;;
39822;SDS011;25499;53.958;10.970;2023-03-01T19:53:36;31.50;;;12.18;;
39822;SDS011;25499;53.958;10.970;2023-03-01T19:56:02;24.67;;;11.32;;
39822;SDS011;25499;53.958;10.970;2023-03-01T19:58:29;18.85;;;11.18;;
39822;SDS011;25499;53.958;10.970;2023-03-01T20:00:55;23.38;;;11.85;;
39822;SDS011;25499;53.958;10.970;2023-03-01T20:03:31;24.75;;;12.77;;
39822;SDS011;25499;53.958;10.970;2023-03-01T20:05:59;24.20;;;12.60;;
39822;SDS011;25499;53.958;10.970;2023-03-01T20:08:28;21.92;;;11.93;;
39822;SDS011;25499;53.958;10.970;2023-03-01T20:11:00;21.88;;;12.20;;
39822;SDS011;25499;53.958;10.970;2023-03-01T20:13:27;28.95;;;12.60;;
39822;SDS011;25499;53.958;10.970;2023-03-01T20:15:54;24.25;;;11.70;;
39822;SDS011;25499;53.958;10.970;2023-03-01T20:18:19;26.77;;;12.02;;
39822;SDS011;25499;53.958;10.970;2023-03-01T20:20:47;21.55;;;12.15;;
39822;SDS011;25499;53.958;10.970;2023-03-01T20:23:13;25.92;;;12.05;;
39822;SDS011;25499;53.958;10.970;2023-03-01T20:25:39;19.80;;;11.85;;
39822;SDS011;25499;53.958;10.970;2023-03-01T20:28:04;25.80;;;12.02;;
39822;SDS011;25499;53.958;10.970;2023-03-01T20:30:30;28.83;;;12.13;;
39822;SDS011;25499;53.958;10.970;2023-03-01T20:32:55;31.08;;;16.17;;
39822;SDS011;25499;53.958;10.970;2023-03-01T20:35:21;24.15;;;13.48;;
39822;SDS011;25499;53.958;10.970;2023-03-01T20:37:49;30.85;;;12.95;;
39822;SDS011;25499;53.958;10.970;2023-03-01T20:40:17;28.77;;;14.48;;
39822;SDS011;25499;53.958;10.970;2023-03-01T20:42:45;23.75;;;13.68;;
39822;SDS011;25499;53.958;10.970;2023-03-01T20:45:10;28.10;;;14.07;;
39822;SDS011;25499;53.958;10.970;2023-03-01T20:47:36;24.52;;;13.20;;
39822;SDS011;25499;53.958;10.970;2023-03-01T20:50:01;21.70;;;12.40;;
39822;SDS011;25499;53.958;10.970;2023-03-01T20:52:29;26.73;;;11.55;;
39822;SDS011;25499;53.958;10.970;2023-03-01T20:54:55;21.08;;;11.15;;
39822;SDS011;25499;53.958;10.970;2023-03-01T20:57:20;43.88;;;12.70;;
39822;SDS011;25499;53.958;10.970;2023-03-01T20:59:45;27.55;;;12.00;;
39822;SDS011;25499;53.958;10.970;2023-03-01T21:02:11;19.25;;;11.18;;
39822;SDS011;25499;53.958;10.970;2023-03-01T21:04:37;27.83;;;12.05;;
39822;SDS011;25499;53.958;10.970;2023-03-01T21:07:02;20.70;;;11.75;;
39822;SDS011;25499;53.958;10.970;2023-03-01T21:09:27;21.48;;;11.63;;
39822;SDS011;25499;53.958;10.970;2023-03-01T21:11:53;23.83;;;11.38;;
39822;SDS011;25499;53.958;10.970;2023-03-01T21:14:18;19.40;;;10.73;;
39822;SDS011;25499;53.958;10.970;2023-03-01T21:16:45;20.33;;;10.73;;
39822;SDS011;25499;53.958;10.970;2023-03-01T21:19:11;25.17;;;10.82;;
39822;SDS011;25499;53.958;10.970;2023-03-01T21:21:36;19.85;;;10.93;;
39822;SDS011;25499;53.958;10.970;2023-03-01T21:24:02;22.92;;;12.00;;
39822;SDS011;25499;53.958;10.970;2023-03-01T21:26:28;33.47;;;12.27;;
39822;SDS011;25499;53.958;10.970;2023-03-01T21:28:57;20.10;;;11.85;;
39822;SDS011;25499;53.958;10.970;2023-03-01T21:31:29;25.13;;;12.40;;
39822;SDS011;25499;53.958;10.970;2023-03-01T21:33:58;25.23;;;12.57;;
39822;SDS011;25499;53.958;10.970;2023-03-01T21:36:26;27.42;;;11.82;;
39822;SDS011;25499;53.958;10.970;2023-03-01T21:38:53;24.85;;;12.30;;
39822;SDS011;25499;53.958;10.970;2023-03-01T21:41:29;25.05;;;12.52;;
39822;SDS011;25499;53.958;10.970;2023-03-01T21:43:57;30.13;;;11.75;;
39822;SDS011;25499;53.958;10.970;2023-03-01T21:46:28;41.17;;;12.10;;
39822;SDS011;25499;53.958;10.970;2023-03-01T21:48:56;27.92;;;12.10;;
